Time;durP1;ratioP1;P1;durP2;ratioP2;P2;SDS_P1;SDS_P2;PMS_P1;PMS_P2;Temp;Humidity;BMP_temperature;BMP_pressure;BME280_temperature;BME280_humidity;BME280_pressure;Samples;Min_cycle;Max_cycle;Signal;HPM_P1;HPM_P2
2022/05/15 00:00:43;;;;;;;8.68;3.92;;;10.30;99.90;;;;;;5066271;28;20041;-91
2022/05/15 00:03:15;;;;;;;10.07;3.55;;;10.30;99.90;;;;;;5066339;28;20071;-91
2022/05/15 00:05:43;;;;;;;7.63;3.83;;;10.60;99.90;;;;;;5046604;28;20051;-91
2022/05/15 00:08:10;;;;;;;13.35;3.80;;;10.20;99.90;;;;;;5047115;28;20052;-91
2022/05/15 00:10:40;;;;;;;5.28;3.03;;;10.20;99.90;;;;;;5045000;28;20036;-91
2022/05/15 00:13:06;;;;;;;7.68;4.30;;;10.20;99.90;;;;;;5064267;28;20040;-91
2022/05/15 00:15:34;;;;;;;8.32;3.55;;;10.20;99.90;;;;;;5024724;28;20045;-91
2022/05/15 00:18:00;;;;;;;10.98;3.75;;;10.10;99.90;;;;;;5062432;28;20098;-90
2022/05/15 00:20:26;;;;;;;8.23;3.42;;;10.20;99.90;;;;;;5041173;28;20106;-90
2022/05/15 00:22:52;;;;;;;3.07;2.77;;;10.20;99.90;;;;;;5064329;28;20049;-91
2022/05/15 00:25:18;;;;;;;7.07;3.83;;;10.20;99.90;;;;;;5043878;28;20045;-90
2022/05/15 00:27:50;;;;;;;7.60;3.83;;;10.30;99.90;;;;;;5050033;28;20051;-91
2022/05/15 00:30:16;;;;;;;6.40;3.85;;;10.30;99.90;;;;;;5067754;28;20544;-91
2022/05/15 00:32:45;;;;;;;9.27;3.47;;;10.20;99.90;;;;;;5048978;28;20104;-90
2022/05/15 00:35:16;;;;;;;4.95;3.40;;;10.20;99.90;;;;;;5043378;28;20106;-91
2022/05/15 00:37:42;;;;;;;11.63;3.95;;;10.30;99.90;;;;;;5038395;28;20040;-90
2022/05/15 00:40:09;;;;;;;4.57;3.00;;;10.40;99.90;;;;;;5065488;28;20249;-91
2022/05/15 00:42:35;;;;;;;6.55;3.97;;;10.20;99.90;;;;;;5041882;28;20049;-91
2022/05/15 00:45:05;;;;;;;8.13;2.83;;;10.20;99.90;;;;;;5038542;28;20510;-91
2022/05/15 00:47:33;;;;;;;13.80;3.88;;;10.20;99.90;;;;;;5041656;28;20059;-90
2022/05/15 00:49:59;;;;;;;6.25;4.85;;;10.20;99.90;;;;;;5044487;28;20080;-91
2022/05/15 00:52:28;;;;;;;10.02;4.07;;;10.10;99.90;;;;;;5044163;28;20053;-90
2022/05/15 00:55:04;;;;;;;4.97;3.72;;;10.10;99.90;;;;;;5058886;28;20118;-91
2022/05/15 00:57:47;;;;;;;5.75;3.88;;;10.00;99.90;;;;;;5048062;28;20041;-91
2022/05/15 01:00:15;;;;;;;6.85;4.07;;;9.80;99.90;;;;;;5048545;28;20518;-91
2022/05/15 01:02:48;;;;;;;9.23;3.63;;;9.80;99.90;;;;;;5040227;28;20068;-91
2022/05/15 01:05:17;;;;;;;8.35;3.85;;;9.90;99.90;;;;;;5048493;28;20048;-91
2022/05/15 01:07:43;;;;;;;5.90;3.85;;;9.80;99.90;;;;;;5040969;28;20048;-91
2022/05/15 01:10:13;;;;;;;8.17;3.80;;;9.70;99.90;;;;;;5051285;28;20037;-90
2022/05/15 01:12:41;;;;;;;4.80;3.55;;;8.90;99.90;;;;;;5058247;28;20503;-90
2022/05/15 01:15:28;;;;;;;5.50;2.85;;;9.70;99.90;;;;;;5073615;28;20040;-91
2022/05/15 01:17:54;;;;;;;8.55;4.43;;;9.10;99.90;;;;;;5080448;28;20394;-91
2022/05/15 01:20:28;;;;;;;8.23;4.05;;;9.70;99.90;;;;;;5063904;28;20056;-91
2022/05/15 01:22:54;;;;;;;8.23;3.95;;;9.70;99.90;;;;;;5054223;28;20068;-91
2022/05/15 01:25:31;;;;;;;8.33;3.80;;;9.60;99.90;;;;;;5047676;28;20507;-91
2022/05/15 01:28:18;;;;;;;6.38;3.63;;;9.70;99.90;;;;;;5063808;28;20486;-91
2022/05/15 01:30:47;;;;;;;5.47;3.45;;;9.70;99.90;;;;;;5063840;28;20044;-90
2022/05/15 01:33:16;;;;;;;5.45;3.97;;;9.70;99.90;;;;;;5051476;28;20044;-91
2022/05/15 01:35:45;;;;;;;8.07;3.80;;;9.70;99.90;;;;;;5044468;28;20045;-91
2022/05/15 01:38:11;;;;;;;3.42;3.13;;;9.70;99.90;;;;;;5031466;28;20094;-90
2022/05/15 01:40:38;;;;;;;10.02;3.47;;;9.70;99.90;;;;;;5047136;28;20128;-90
2022/05/15 01:43:05;;;;;;;9.93;3.58;;;9.60;99.90;;;;;;5053744;28;20093;-91
2022/05/15 01:45:31;;;;;;;6.65;4.30;;;9.70;99.90;;;;;;5045243;28;20079;-91
2022/05/15 01:47:57;;;;;;;5.63;3.47;;;9.80;99.90;;;;;;5043034;28;20048;-91
2022/05/15 01:50:26;;;;;;;8.97;4.60;;;9.30;99.90;;;;;;5044012;28;20052;-91
2022/05/15 01:52:52;;;;;;;9.02;3.03;;;9.60;99.90;;;;;;5062577;28;20098;-91
2022/05/15 01:55:18;;;;;;;9.47;3.90;;;9.30;99.90;;;;;;5041964;28;20048;-92
2022/05/15 01:57:43;;;;;;;6.37;4.40;;;9.30;99.90;;;;;;5040689;28;20296;-90
2022/05/15 02:00:19;;;;;;;8.13;3.70;;;10.30;99.90;;;;;;5042542;28;20114;-92
2022/05/15 02:02:46;;;;;;;8.30;3.55;;;9.30;99.90;;;;;;5078801;28;20045;-91
2022/05/15 02:05:13;;;;;;;8.18;3.95;;;9.10;99.90;;;;;;5043175;28;20389;-91
2022/05/15 02:07:39;;;;;;;4.65;3.63;;;9.20;99.90;;;;;;5076880;28;20124;-92
2022/05/15 02:10:15;;;;;;;10.13;3.67;;;9.00;99.90;;;;;;5043118;28;20715;-92
2022/05/15 02:12:41;;;;;;;4.10;2.85;;;9.10;99.90;;;;;;5071688;28;20075;-92
2022/05/15 02:15:07;;;;;;;8.40;3.70;;;9.00;99.90;;;;;;5041329;28;20547;-92
2022/05/15 02:17:33;;;;;;;12.18;5.95;;;9.00;99.90;;;;;;5075261;28;20411;-93
2022/05/15 02:19:59;;;;;;;7.00;3.30;;;9.00;99.90;;;;;;5055452;28;20079;-92
2022/05/15 02:22:28;;;;;;;5.00;2.53;;;8.80;99.90;;;;;;5058045;28;20177;-91
2022/05/15 02:25:00;;;;;;;6.20;3.63;;;8.80;99.90;;;;;;5036639;28;20453;-92
2022/05/15 02:27:28;;;;;;;11.65;4.47;;;9.00;99.90;;;;;;5065366;28;20089;-93
2022/05/15 02:29:54;;;;;;;6.90;3.35;;;8.40;99.90;;;;;;5037635;28;20048;-92
2022/05/15 02:32:20;;;;;;;12.00;4.93;;;8.80;99.90;;;;;;5047195;28;20055;-92
2022/05/15 02:34:53;;;;;;;6.90;4.20;;;8.80;99.90;;;;;;5025310;28;20041;-92
2022/05/15 02:37:18;;;;;;;6.80;3.38;;;8.80;99.90;;;;;;5037969;28;20053;-93
2022/05/15 02:39:45;;;;;;;6.80;3.47;;;8.80;99.90;;;;;;5059689;28;20045;-92
2022/05/15 02:42:11;;;;;;;6.53;3.78;;;8.80;99.90;;;;;;5061147;28;20793;-92
2022/05/15 02:44:39;;;;;;;6.30;3.03;;;8.80;99.90;;;;;;5025395;28;20042;-92
2022/05/15 02:47:10;;;;;;;10.93;4.13;;;9.40;99.90;;;;;;5047305;28;20437;-92
2022/05/15 02:52:23;;;;;;;9.73;3.50;;;8.60;99.90;;;;;;5056071;28;20049;-92
2022/05/15 02:54:53;;;;;;;5.85;3.40;;;8.60;99.90;;;;;;5059382;28;20052;-91
2022/05/15 02:57:19;;;;;;;9.27;2.88;;;8.50;99.90;;;;;;5029635;28;20032;-92
2022/05/15 02:59:48;;;;;;;6.73;3.57;;;8.50;99.90;;;;;;5046486;28;20517;-93
2022/05/15 03:02:14;;;;;;;7.32;3.40;;;8.50;99.90;;;;;;5043835;28;20268;-92
2022/05/15 03:04:39;;;;;;;7.00;2.88;;;8.60;99.90;;;;;;5044270;28;20501;-92
2022/05/15 03:07:07;;;;;;;11.30;3.67;;;8.50;99.90;;;;;;5053601;28;20123;-92
2022/05/15 03:09:37;;;;;;;3.72;3.05;;;8.60;99.90;;;;;;5046477;28;20481;-93
2022/05/15 03:12:06;;;;;;;6.47;3.53;;;8.30;99.90;;;;;;5042522;28;20122;-93
2022/05/15 03:14:32;;;;;;;3.92;3.47;;;8.50;99.90;;;;;;5049128;28;20033;-92
2022/05/15 03:17:05;;;;;;;4.87;3.20;;;8.30;99.90;;;;;;5029650;28;20448;-92
2022/05/15 03:22:32;;;;;;;10.50;4.40;;;8.30;99.90;;;;;;5040072;28;20139;-92
2022/05/15 03:24:58;;;;;;;5.13;3.33;;;8.20;99.90;;;;;;5022014;28;20551;-92
2022/05/15 03:27:24;;;;;;;4.33;3.13;;;8.30;99.90;;;;;;5037174;28;20045;-93
2022/05/15 03:29:50;;;;;;;3.97;3.20;;;8.30;99.90;;;;;;5048099;28;20053;-93
2022/05/15 03:32:18;;;;;;;7.80;3.47;;;8.20;99.90;;;;;;5040200;28;20042;-92
2022/05/15 03:34:44;;;;;;;5.20;2.92;;;8.10;99.90;;;;;;5025144;28;20040;-93
2022/05/15 03:37:09;;;;;;;5.53;3.73;;;8.20;99.90;;;;;;5056769;28;20513;-92
2022/05/15 03:39:44;;;;;;;6.03;3.57;;;8.10;99.90;;;;;;5039309;28;20056;-93
2022/05/15 03:42:10;;;;;;;6.22;3.78;;;8.20;99.90;;;;;;5062976;28;20131;-93
2022/05/15 03:44:37;;;;;;;7.03;3.30;;;8.10;99.90;;;;;;5040635;28;20136;-93
2022/05/15 03:47:07;;;;;;;7.13;3.42;;;8.10;99.90;;;;;;5039892;28;20041;-92
2022/05/15 03:49:38;;;;;;;6.18;3.38;;;8.10;99.90;;;;;;5043433;28;20482;-93
2022/05/15 03:52:09;;;;;;;4.85;3.15;;;8.20;99.90;;;;;;5023109;28;20088;-92
2022/05/15 03:54:35;;;;;;;4.90;3.33;;;8.10;99.90;;;;;;5027580;28;20052;-92
2022/05/15 03:57:04;;;;;;;6.40;4.05;;;8.00;99.90;;;;;;5035557;28;20136;-91
2022/05/15 03:59:36;;;;;;;9.95;4.78;;;8.10;99.90;;;;;;5060405;28;20076;-92
2022/05/15 04:02:09;;;;;;;10.93;4.30;;;8.20;99.90;;;;;;5042577;28;20045;-91
2022/05/15 04:04:43;;;;;;;6.38;4.22;;;7.30;99.90;;;;;;5044405;28;20456;-92
2022/05/15 04:07:09;;;;;;;12.60;4.13;;;8.20;99.90;;;;;;5023794;28;20056;-92
2022/05/15 04:09:38;;;;;;;6.53;3.75;;;9.50;99.90;;;;;;5057240;28;20244;-92
2022/05/15 04:12:20;;;;;;;4.20;3.65;;;8.10;99.90;;;;;;5057358;28;20045;-92
2022/05/15 04:14:46;;;;;;;6.22;3.28;;;8.20;99.90;;;;;;5050643;28;20097;-92
2022/05/15 04:17:12;;;;;;;8.73;3.97;;;8.10;99.90;;;;;;5063057;28;20124;-91
2022/05/15 04:19:38;;;;;;;8.43;4.00;;;8.20;99.90;;;;;;5059299;28;20132;-91
2022/05/15 04:22:08;;;;;;;4.40;3.50;;;8.80;99.90;;;;;;5044571;28;20041;-91
2022/05/15 04:24:37;;;;;;;6.97;3.85;;;9.70;99.90;;;;;;5063207;28;20049;-93
2022/05/15 04:27:20;;;;;;;;;;;;;;;;;;;;;
2022/05/15 04:29:49;;;;;;;5.38;3.60;;;8.40;99.90;;;;;;5048530;28;20209;-93
2022/05/15 04:32:17;;;;;;;9.85;4.45;;;9.90;99.90;;;;;;5029644;28;20047;-93
2022/05/15 04:34:43;;;;;;;8.27;3.60;;;8.70;99.90;;;;;;5047749;28;20473;-92
2022/05/15 04:37:11;;;;;;;5.90;4.50;;;8.40;99.90;;;;;;5046051;28;20123;-93
2022/05/15 04:39:49;;;;;;;11.63;5.40;;;8.40;99.90;;;;;;5040134;28;20037;-92
2022/05/15 04:42:18;;;;;;;6.85;4.53;;;8.40;99.90;;;;;;5052832;28;20079;-92
2022/05/15 04:44:53;;;;;;;8.73;4.60;;;8.50;99.90;;;;;;5040139;28;20471;-93
2022/05/15 04:47:33;;;;;;;;;;;;;;;;;;;;;
2022/05/15 04:50:05;;;;;;;4.72;3.25;;;10.00;99.90;;;;;;5042269;28;20041;-92
2022/05/15 04:52:37;;;;;;;8.13;3.90;;;8.60;99.90;;;;;;5040531;28;20055;-93
2022/05/15 04:55:06;;;;;;;11.68;5.25;;;8.70;99.90;;;;;;5045661;28;20493;-92
2022/05/15 04:57:31;;;;;;;7.75;4.20;;;8.80;99.90;;;;;;5048857;28;20044;-92
2022/05/15 05:00:02;;;;;;;6.27;4.13;;;8.90;99.90;;;;;;5042335;28;20045;-94
2022/05/15 05:02:31;;;;;;;7.90;3.55;;;9.50;99.90;;;;;;5048888;28;20059;-92
2022/05/15 05:04:59;;;;;;;14.73;4.72;;;9.40;99.90;;;;;;5057943;28;20076;-92
2022/05/15 05:07:34;;;;;;;6.38;3.45;;;9.70;99.90;;;;;;5049404;28;20086;-92
2022/05/15 05:10:00;;;;;;;10.55;4.15;;;10.20;99.90;;;;;;5044716;28;20124;-92
2022/05/15 05:12:28;;;;;;;4.50;3.78;;;10.70;99.90;;;;;;5045516;28;20095;-92
2022/05/15 05:14:57;;;;;;;10.63;3.70;;;11.20;99.90;;;;;;5041259;28;20404;-92
2022/05/15 05:17:24;;;;;;;13.18;5.70;;;11.50;99.90;;;;;;5054298;28;20043;-92
2022/05/15 05:19:58;;;;;;;6.10;4.57;;;12.00;99.90;;;;;;5048668;28;20092;-92
2022/05/15 05:22:36;;;;;;;7.38;3.85;;;12.40;99.90;;;;;;5038006;28;20041;-92
2022/05/15 05:25:07;;;;;;;6.72;3.65;;;12.80;99.90;;;;;;5044803;28;20048;-92
2022/05/15 05:27:36;;;;;;;9.65;4.22;;;13.20;99.90;;;;;;5056681;28;20048;-92
2022/05/15 05:30:02;;;;;;;6.78;4.90;;;13.40;99.90;;;;;;5047303;28;20036;-92
2022/05/15 05:32:28;;;;;;;;;;;13.80;99.90;;;;;;5048582;28;20052;-92
2022/05/15 05:34:59;;;;;;;7.03;3.85;;;13.10;99.90;;;;;;5063700;28;19958;-92
2022/05/15 05:37:25;;;;;;;7.07;4.38;;;14.10;99.90;;;;;;5045243;28;20040;-92
2022/05/15 05:39:53;;;;;;;12.13;3.95;;;13.90;99.90;;;;;;5060013;28;20040;-92
2022/05/15 05:42:19;;;;;;;11.45;5.18;;;15.20;99.90;;;;;;5043337;28;20052;-92
2022/05/15 05:44:45;;;;;;;7.70;4.17;;;14.50;99.90;;;;;;5050493;28;20040;-92
2022/05/15 05:47:16;;;;;;;10.93;4.90;;;15.30;99.90;;;;;;5050405;28;20047;-91
2022/05/15 05:49:44;;;;;;;14.05;4.53;;;14.90;99.90;;;;;;5030514;28;20484;-91
2022/05/15 05:52:09;;;;;;;9.68;4.80;;;15.10;99.90;;;;;;5067571;28;20135;-92
2022/05/15 05:54:35;;;;;;;10.63;4.43;;;15.20;99.90;;;;;;5042411;28;20194;-91
2022/05/15 05:57:01;;;;;;;5.43;4.10;;;15.30;99.90;;;;;;5061508;28;20044;-91
2022/05/15 05:59:39;;;;;;;8.23;3.88;;;15.50;99.90;;;;;;5045739;28;20044;-91
2022/05/15 06:02:13;;;;;;;10.48;4.60;;;15.50;99.90;;;;;;5036975;28;20045;-92
2022/05/15 06:04:52;;;;;;;7.25;4.60;;;15.70;99.90;;;;;;5058843;28;20103;-92
2022/05/15 06:07:23;;;;;;;6.70;5.80;;;15.70;99.90;;;;;;5050303;28;20051;-91
2022/05/15 06:09:50;;;;;;;8.07;4.25;;;16.20;99.90;;;;;;5045677;28;20195;-92
2022/05/15 06:12:22;;;;;;;5.03;3.80;;;15.80;99.90;;;;;;5057732;28;20041;-92
2022/05/15 06:14:49;;;;;;;11.13;4.43;;;15.90;99.90;;;;;;5064122;28;20477;-91
2022/05/15 06:17:27;;;;;;;8.85;3.20;;;15.90;99.90;;;;;;5048561;28;20033;-92
2022/05/15 06:19:54;;;;;;;9.00;4.00;;;16.10;99.90;;;;;;5043327;28;20139;-92
2022/05/15 06:22:33;;;;;;;;;;;;;;;;;;;;;
2022/05/15 06:25:08;;;;;;;12.52;5.75;;;15.70;99.90;;;;;;5056883;28;20399;-91
2022/05/15 06:27:43;;;;;;;3.83;2.95;;;16.20;99.90;;;;;;5039603;28;20135;-92
2022/05/15 06:30:12;;;;;;;9.40;3.42;;;16.30;99.90;;;;;;5052088;28;20048;-92
2022/05/15 06:32:39;;;;;;;6.57;4.00;;;16.40;99.90;;;;;;5046224;28;20044;-89
2022/05/15 06:35:08;;;;;;;8.13;3.95;;;17.10;99.90;;;;;;5044392;28;20054;-90
2022/05/15 06:37:36;;;;;;;11.35;4.18;;;16.60;99.90;;;;;;5045660;28;20564;-90
2022/05/15 06:40:16;;;;;;;5.88;2.95;;;16.80;99.90;;;;;;5066721;28;20052;-90
2022/05/15 06:42:42;;;;;;;6.75;3.40;;;16.90;99.90;;;;;;5030531;28;20485;-90
2022/05/15 06:45:09;;;;;;;11.27;5.43;;;17.00;99.90;;;;;;5020199;28;20047;-90
2022/05/15 06:47:35;;;;;;;8.55;4.35;;;16.90;99.90;;;;;;5024273;28;20447;-90
2022/05/15 06:50:01;;;;;;;9.35;3.25;;;17.20;99.90;;;;;;5055978;28;20086;-90
2022/05/15 06:52:27;;;;;;;9.55;4.18;;;17.40;99.90;;;;;;5037142;28;20048;-90
2022/05/15 06:54:53;;;;;;;10.63;4.15;;;17.50;99.90;;;;;;5044944;28;20037;-90
2022/05/15 06:57:28;;;;;;;8.80;2.58;;;17.70;99.90;;;;;;5044151;28;20044;-90
2022/05/15 06:59:58;;;;;;;7.88;4.35;;;18.00;99.90;;;;;;5032741;28;20049;-90
2022/05/15 07:02:28;;;;;;;7.88;3.50;;;17.30;99.90;;;;;;5036454;28;20071;-90
2022/05/15 07:04:54;;;;;;;6.60;3.47;;;18.20;99.90;;;;;;5042590;28;20511;-91
2022/05/15 07:07:20;;;;;;;;;;;18.40;99.90;;;;;;5058505;28;20041;-90
2022/05/15 07:09:49;;;;;;;8.63;3.40;;;18.30;99.90;;;;;;5055474;28;19952;-90
2022/05/15 07:12:17;;;;;;;5.75;2.80;;;18.30;99.90;;;;;;5036709;28;20087;-91
2022/05/15 07:14:43;;;;;;;5.18;3.45;;;18.50;99.90;;;;;;5015475;28;20045;-91
2022/05/15 07:17:09;;;;;;;9.20;4.85;;;18.60;99.90;;;;;;5041308;28;20040;-90
2022/05/15 07:19:35;;;;;;;;;;;18.60;99.90;;;;;;5039223;28;20082;-91
2022/05/15 07:22:00;;;;;;;13.27;4.50;;;18.60;99.90;;;;;;5058638;28;19924;-91
2022/05/15 07:24:35;;;;;;;9.88;3.35;;;18.60;99.90;;;;;;5046222;28;20045;-91
2022/05/15 07:27:01;;;;;;;6.97;4.07;;;18.80;99.90;;;;;;5067349;28;20037;-89
2022/05/15 07:29:27;;;;;;;9.02;3.08;;;18.90;99.90;;;;;;5045020;28;20128;-91
2022/05/15 07:31:54;;;;;;;6.10;2.67;;;19.00;99.90;;;;;;5041252;28;20128;-91
2022/05/15 07:34:31;;;;;;;4.85;3.17;;;19.10;99.90;;;;;;5057421;28;20457;-93
2022/05/15 07:36:56;;;;;;;;;;;19.10;99.90;;;;;;5046036;28;20420;-85
2022/05/15 07:39:22;;;;;;;5.55;2.65;;;19.10;99.90;;;;;;5034563;28;20012;-86
2022/05/15 07:41:49;;;;;;;6.10;3.63;;;19.30;99.90;;;;;;5060186;28;20051;-87
2022/05/15 07:44:16;;;;;;;3.50;2.55;;;19.50;99.90;;;;;;5064459;28;20163;-87
2022/05/15 07:46:42;;;;;;;9.57;3.28;;;19.60;99.90;;;;;;5041408;28;20059;-91
2022/05/15 07:49:09;;;;;;;8.88;3.22;;;19.50;99.90;;;;;;5045462;28;20047;-88
2022/05/15 07:51:35;;;;;;;7.05;3.22;;;19.70;99.90;;;;;;5038529;28;20453;-88
2022/05/15 07:54:01;;;;;;;5.00;2.78;;;19.90;99.90;;;;;;5050004;28;20041;-87
2022/05/15 07:56:27;;;;;;;;;;;20.00;99.90;;;;;;5084515;28;20040;-89
2022/05/15 07:58:52;;;;;;;6.40;3.40;;;20.20;99.90;;;;;;5053258;28;19978;-86
2022/05/15 08:01:18;;;;;;;;;;;20.20;99.90;;;;;;5066693;28;20063;-88
2022/05/15 08:03:44;;;;;;;12.70;2.45;;;20.20;99.00;;;;;;5021755;28;19921;-87
2022/05/15 08:09:04;;;;;;;9.00;3.30;;;20.20;99.40;;;;;;5058796;28;20041;-85
2022/05/15 08:11:31;;;;;;;4.78;2.42;;;20.30;98.70;;;;;;5055674;28;20076;-85
2022/05/15 08:14:00;;;;;;;5.10;3.33;;;20.40;99.10;;;;;;5047242;28;20502;-86
2022/05/15 08:16:26;;;;;;;3.00;2.60;;;20.40;98.60;;;;;;5055780;28;20402;-85
2022/05/15 08:24:20;;;;;;;6.85;2.55;;;20.70;97.80;;;;;;5063694;28;20053;-83
2022/05/15 08:26:46;;;;;;;;;;;20.90;96.80;;;;;;5067183;28;20040;-85
2022/05/15 08:29:12;;;;;;;6.55;2.33;;;21.10;95.00;;;;;;5066200;28;19925;-85
2022/05/15 08:31:39;;;;;;;7.47;2.88;;;21.30;96.10;;;;;;5049552;28;20421;-87
2022/05/15 08:34:06;;;;;;;10.38;3.10;;;21.70;95.40;;;;;;5039528;28;20033;-86
2022/05/15 08:36:33;;;;;;;6.07;2.65;;;21.70;93.50;;;;;;5050739;28;20087;-85
2022/05/15 08:38:59;;;;;;;8.43;2.80;;;21.90;93.30;;;;;;5017171;28;20045;-89
2022/05/15 08:41:59;;;;;;;6.25;2.75;;;22.00;92.80;;;;;;5033910;28;20044;-88
2022/05/15 08:44:33;;;;;;;6.63;2.97;;;22.20;91.40;;;;;;5034292;28;20053;-89
2022/05/15 08:47:09;;;;;;;3.92;2.55;;;22.00;90.90;;;;;;5033722;28;20369;-88
2022/05/15 08:49:39;;;;;;;10.05;3.55;;;22.10;90.80;;;;;;5017676;28;20381;-88
2022/05/15 08:52:08;;;;;;;7.25;2.70;;;22.10;90.80;;;;;;5050568;28;20044;-88
2022/05/15 08:55:00;;;;;;;9.68;2.83;;;22.10;90.70;;;;;;5035891;28;20041;-89
2022/05/15 08:57:37;;;;;;;7.80;3.10;;;22.20;88.50;;;;;;5026439;28;20056;-88
2022/05/15 09:00:06;;;;;;;3.63;2.80;;;22.30;86.80;;;;;;5053357;28;20048;-88
2022/05/15 09:02:32;;;;;;;4.75;3.17;;;22.30;88.20;;;;;;5037069;28;20052;-88
2022/05/15 09:04:58;;;;;;;;;;;22.50;87.50;;;;;;5020602;28;20041;-88
2022/05/15 09:07:40;;;;;;;4.40;2.88;;;22.40;84.50;;;;;;5036989;28;20264;-85
2022/05/15 09:10:47;;;;;;;6.97;2.47;;;22.60;86.00;;;;;;5036451;28;20053;-86
2022/05/15 09:13:31;;;;;;;6.20;2.80;;;22.80;84.20;;;;;;5042478;28;20073;-82
2022/05/15 09:16:00;;;;;;;6.60;2.72;;;22.80;82.70;;;;;;5067483;28;20044;-82
2022/05/15 09:18:27;;;;;;;4.68;2.70;;;22.90;84.70;;;;;;5053539;28;20126;-81
2022/05/15 09:20:53;;;;;;;3.63;2.17;;;23.00;83.80;;;;;;5071579;28;20057;-83
2022/05/15 09:23:29;;;;;;;;;;;23.10;83.40;;;;;;5038706;28;20097;-89
2022/05/15 09:26:19;;;;;;;8.57;2.70;;;23.20;81.60;;;;;;5037845;28;19920;-88
2022/05/15 09:29:14;;;;;;;8.88;3.47;;;23.10;80.30;;;;;;5036806;28;20048;-88
2022/05/15 09:31:44;;;;;;;8.52;2.90;;;23.10;79.70;;;;;;5044616;28;20172;-87
2022/05/15 09:34:29;;;;;;;12.15;3.88;;;23.10;80.90;;;;;;5056567;28;20037;-88
2022/05/15 09:38:27;;;;;;;7.00;3.22;;;22.10;79.50;;;;;;5066014;28;20049;-88
2022/05/15 09:39:45;;;;;;;5.50;2.53;;;23.20;79.40;;;;;;5049314;28;20498;-87
2022/05/15 09:45:07;;;;;;;9.77;3.22;;;23.50;78.10;;;;;;5053692;28;20049;-87
2022/05/15 09:47:45;;;;;;;7.97;3.40;;;23.50;77.00;;;;;;5063703;28;20048;-87
2022/05/15 09:50:53;;;;;;;6.45;2.33;;;23.10;77.10;;;;;;5058286;28;20495;-86
2022/05/15 09:53:25;;;;;;;;;;;23.60;76.40;;;;;;5052015;28;20053;-86
2022/05/15 09:56:08;;;;;;;8.40;2.55;;;23.50;74.90;;;;;;5040422;28;19920;-86
2022/05/15 09:58:45;;;;;;;4.35;2.72;;;23.50;77.20;;;;;;5062411;28;20120;-86
2022/05/15 10:01:31;;;;;;;5.70;2.80;;;23.60;76.60;;;;;;5060196;28;20048;-85
2022/05/15 10:03:58;;;;;;;4.60;2.85;;;23.70;74.20;;;;;;5055198;28;20392;-86
2022/05/15 10:06:33;;;;;;;5.90;2.30;;;23.80;76.70;;;;;;5045293;28;20072;-86
2022/05/15 10:09:22;;;;;;;4.88;2.33;;;23.90;75.80;;;;;;5042435;28;20037;-84
2022/05/15 10:11:54;;;;;;;5.47;2.70;;;24.00;73.10;;;;;;5066623;28;20041;-84
2022/05/15 10:14:54;;;;;;;7.15;2.92;;;24.00;74.20;;;;;;5055075;28;20036;-84
2022/05/15 10:17:22;;;;;;;2.30;2.08;;;24.00;72.30;;;;;;5041544;28;20055;-84
2022/05/15 10:19:55;;;;;;;8.60;2.63;;;24.20;75.70;;;;;;5065435;28;20050;-84
2022/05/15 10:22:42;;;;;;;11.98;3.05;;;24.40;73.90;;;;;;5063566;28;20111;-86
2022/05/15 10:25:22;;;;;;;;;;;24.30;72.00;;;;;;5055252;28;20056;-86
2022/05/15 10:28:07;;;;;;;7.47;2.08;;;24.10;71.10;;;;;;5048072;28;19927;-90
2022/05/15 10:30:41;;;;;;;5.67;2.80;;;24.20;72.10;;;;;;5065549;28;20036;-84
2022/05/15 10:33:15;;;;;;;7.20;2.30;;;24.30;71.50;;;;;;5064116;28;20045;-83
2022/05/15 10:36:17;;;;;;;8.40;2.92;;;24.50;70.80;;;;;;5055764;28;20049;-84
2022/05/15 10:39:11;;;;;;;5.57;2.28;;;25.70;69.90;;;;;;5037618;28;20124;-87
2022/05/15 10:42:10;;;;;;;6.28;2.35;;;24.80;68.60;;;;;;5061912;28;20054;-89
2022/05/15 10:45:14;;;;;;;4.97;3.03;;;24.80;68.70;;;;;;5037861;28;20419;-90
2022/05/15 10:48:26;;;;;;;3.72;2.47;;;24.70;67.40;;;;;;5059259;28;20077;-90
2022/05/15 10:51:19;;;;;;;5.70;3.03;;;24.80;66.20;;;;;;5053549;28;20042;-92
2022/05/15 10:57:22;;;;;;;8.73;3.35;;;24.10;65.20;;;;;;5058959;28;20098;-89
2022/05/15 11:00:33;;;;;;;8.73;2.13;;;25.00;66.50;;;;;;5041871;28;20036;-91
2022/05/15 11:03:40;;;;;;;5.07;2.70;;;24.90;65.90;;;;;;5009734;28;20176;-91
2022/05/15 11:06:32;;;;;;;4.30;2.50;;;25.00;66.10;;;;;;4974706;28;20171;-90
2022/05/15 11:09:04;;;;;;;4.47;2.30;;;25.10;64.40;;;;;;5057394;28;20065;-93
2022/05/15 11:11:57;;;;;;;6.25;2.13;;;25.00;65.00;;;;;;5063519;28;20450;-89
2022/05/15 11:14:51;;;;;;;4.68;2.42;;;25.10;64.20;;;;;;5062231;28;20087;-89
2022/05/15 11:17:19;;;;;;;7.53;2.72;;;25.40;63.80;;;;;;5058628;28;20059;-89
2022/05/15 11:19:51;;;;;;;2.47;2.25;;;25.40;64.30;;;;;;5043571;28;20061;-88
2022/05/15 11:22:37;;;;;;;3.97;2.10;;;24.70;63.50;;;;;;5068688;28;20049;-89
2022/05/15 11:25:14;;;;;;;7.03;3.22;;;25.80;63.70;;;;;;5054206;28;20045;-88
2022/05/15 11:27:47;;;;;;;4.20;2.50;;;25.30;64.20;;;;;;5058509;28;20045;-89
2022/05/15 11:30:36;;;;;;;5.10;2.58;;;25.30;62.70;;;;;;5067265;28;20059;-89
2022/05/15 11:33:11;;;;;;;3.72;2.50;;;25.40;62.40;;;;;;5034567;28;20049;-89
2022/05/15 11:36:01;;;;;;;5.70;2.30;;;25.50;62.70;;;;;;5056527;28;20448;-90
2022/05/15 11:38:44;;;;;;;4.45;2.10;;;25.40;62.20;;;;;;5051912;28;20495;-91
2022/05/15 11:41:31;;;;;;;5.50;2.67;;;25.50;62.50;;;;;;5049737;28;20080;-88
2022/05/15 11:43:58;;;;;;;;;;;25.60;61.30;;;;;;5044642;28;20083;-88
2022/05/15 11:46:43;;;;;;;;;;;25.40;61.30;;;;;;5051554;28;19968;-86
2022/05/15 11:49:21;;;;;;;3.90;2.17;;;25.40;60.70;;;;;;5060557;28;19921;-87
2022/05/15 11:52:19;;;;;;;7.57;2.47;;;25.40;61.20;;;;;;5062364;28;20052;-88
2022/05/15 11:54:52;;;;;;;3.05;2.33;;;25.30;59.80;;;;;;5035902;28;20115;-83
2022/05/15 11:57:39;;;;;;;6.53;2.60;;;25.10;60.40;;;;;;5064743;28;20079;-82
2022/05/15 12:00:11;;;;;;;5.60;2.47;;;25.10;61.10;;;;;;5057661;28;20119;-88
2022/05/15 12:02:45;;;;;;;5.50;2.47;;;25.10;61.30;;;;;;5050471;28;20048;-85
2022/05/15 12:05:29;;;;;;;4.45;2.28;;;25.20;60.60;;;;;;5050167;28;20072;-85
2022/05/15 12:08:15;;;;;;;5.40;2.35;;;25.30;60.10;;;;;;5034143;28;20049;-85
2022/05/15 12:10:40;;;;;;;7.25;2.50;;;25.30;59.60;;;;;;5049287;28;20095;-85
2022/05/15 12:13:08;;;;;;;4.95;2.53;;;25.40;60.10;;;;;;5033984;28;20045;-87
2022/05/15 12:15:39;;;;;;;5.45;2.42;;;25.50;59.60;;;;;;5034198;28;20132;-85
2022/05/15 12:18:36;;;;;;;3.65;2.15;;;25.70;60.10;;;;;;5050710;28;20099;-85
2022/05/15 12:21:04;;;;;;;;;;;25.80;60.10;;;;;;5050616;28;20051;-85
2022/05/15 12:23:35;;;;;;;8.98;2.25;;;25.90;59.70;;;;;;5033446;28;19974;-85
2022/05/15 12:26:20;;;;;;;6.32;2.20;;;26.10;59.90;;;;;;5050424;28;20045;-85
2022/05/15 12:28:59;;;;;;;5.93;1.80;;;26.30;59.20;;;;;;5051477;28;20033;-85
2022/05/15 12:31:38;;;;;;;2.85;2.40;;;26.30;59.40;;;;;;5054002;28;20103;-85
2022/05/15 12:34:11;;;;;;;6.20;2.80;;;26.20;58.90;;;;;;5037674;28;20041;-85
2022/05/15 12:36:40;;;;;;;5.18;2.10;;;26.30;59.10;;;;;;5054158;28;20048;-85
2022/05/15 12:39:09;;;;;;;7.18;2.58;;;26.20;59.20;;;;;;5037368;28;20091;-85
2022/05/15 12:41:41;;;;;;;6.82;2.47;;;26.30;59.20;;;;;;5036944;28;20534;-85
2022/05/15 12:44:10;;;;;;;4.07;2.53;;;26.40;58.70;;;;;;5053765;28;20041;-85
2022/05/15 12:46:54;;;;;;;6.07;2.35;;;26.60;58.60;;;;;;5036866;28;20053;-85
2022/05/15 12:49:34;;;;;;;4.97;2.45;;;26.40;56.20;;;;;;5053743;28;20055;-85
2022/05/15 12:52:10;;;;;;;5.97;2.10;;;26.50;55.70;;;;;;5053863;28;20049;-85
2022/05/15 12:54:37;;;;;;;6.68;2.03;;;26.40;56.20;;;;;;5036588;28;20072;-85
2022/05/15 12:57:07;;;;;;;3.05;2.35;;;26.50;56.10;;;;;;5036753;28;20060;-85
2022/05/15 12:59:44;;;;;;;5.72;2.40;;;26.70;55.90;;;;;;5036508;28;20075;-85
2022/05/15 13:02:36;;;;;;;9.10;2.35;;;26.70;55.30;;;;;;5053580;28;20047;-85
2022/05/15 13:05:06;;;;;;;7.82;2.13;;;26.40;56.50;;;;;;5053579;28;20049;-85
2022/05/15 13:07:37;;;;;;;5.60;1.92;;;26.60;55.60;;;;;;5052875;28;20115;-85
2022/05/15 13:10:12;;;;;;;4.63;2.50;;;26.60;55.10;;;;;;5037204;28;20136;-85
2022/05/15 13:13:08;;;;;;;8.32;2.78;;;26.70;55.30;;;;;;5052825;28;20132;-85
2022/05/15 13:15:35;;;;;;;5.03;2.25;;;26.60;54.10;;;;;;5053014;28;20048;-85
2022/05/15 13:18:06;;;;;;;5.90;2.28;;;26.60;55.00;;;;;;5036829;28;20076;-85
2022/05/15 13:20:37;;;;;;;4.28;2.30;;;26.60;55.80;;;;;;5052584;28;20075;-85
2022/05/15 13:23:06;;;;;;;5.72;2.10;;;26.70;56.20;;;;;;5052617;28;20132;-85
2022/05/15 13:25:38;;;;;;;2.42;2.20;;;26.70;55.60;;;;;;5036054;28;20040;-85
2022/05/15 13:28:05;;;;;;;6.35;2.00;;;26.80;55.80;;;;;;5053383;28;20143;-85
2022/05/15 13:30:33;;;;;;;3.28;2.08;;;27.00;55.60;;;;;;5052477;28;20511;-85
2022/05/15 13:33:17;;;;;;;3.35;1.92;;;26.90;54.20;;;;;;5036683;28;20098;-85
2022/05/15 13:35:49;;;;;;;4.10;1.92;;;27.00;54.10;;;;;;5052828;28;20056;-85
2022/05/15 13:38:31;;;;;;;8.27;2.28;;;27.00;53.70;;;;;;5053232;28;20106;-85
2022/05/15 13:43:58;;;;;;;4.55;2.47;;;26.80;53.30;;;;;;5052632;28;20147;-85
2022/05/15 13:46:33;;;;;;;2.63;2.42;;;26.80;53.70;;;;;;5052502;28;20057;-85